Time;durP1;ratioP1;P1;durP2;ratioP2;P2;SDS_P1;SDS_P2;PMS_P1;PMS_P2;Temp;Humidity;BMP_temperature;BMP_pressure;BME280_temperature;BME280_humidity;BME280_pressure;Samples;Min_cycle;Max_cycle;Signal;HPM_P1;HPM_P2
2023/07/26 00:01:01;;;;;;;1.92;1.30;;;24.00;53.20;;;;;;6142001;22;87289;-90
2023/07/26 00:03:27;;;;;;;2.72;1.60;;;24.00;53.30;;;;;;6140608;22;88194;-89
2023/07/26 00:05:52;;;;;;;1.50;1.05;;;24.00;53.20;;;;;;6114137;22;91183;-88
2023/07/26 00:08:18;;;;;;;1.38;1.10;;;24.00;53.30;;;;;;6138571;22;91332;-88
2023/07/26 00:10:48;;;;;;;1.70;1.30;;;24.00;53.40;;;;;;6142298;22;87724;-91
2023/07/26 00:13:16;;;;;;;1.88;1.58;;;24.00;53.30;;;;;;6115537;22;89378;-87
2023/07/26 00:15:42;;;;;;;1.67;1.00;;;24.00;53.30;;;;;;6114079;22;89478;-90
2023/07/26 00:18:08;;;;;;;1.42;1.27;;;24.00;53.20;;;;;;6115445;22;90019;-88
2023/07/26 00:20:34;;;;;;;2.67;1.50;;;24.00;53.30;;;;;;6141545;22;87056;-89
2023/07/26 00:22:59;;;;;;;2.33;1.50;;;24.00;53.40;;;;;;6142981;22;86428;-89
2023/07/26 00:25:25;;;;;;;1.63;1.38;;;24.00;53.40;;;;;;6142193;22;87599;-89
2023/07/26 00:27:51;;;;;;;1.35;1.10;;;24.00;53.30;;;;;;6141593;22;88307;-88
2023/07/26 00:30:16;;;;;;;1.20;1.10;;;24.00;53.50;;;;;;6143349;22;88679;-88
2023/07/26 00:32:42;;;;;;;2.67;1.70;;;24.00;53.50;;;;;;6142512;22;87786;-91
2023/07/26 00:35:08;;;;;;;1.77;1.10;;;24.00;53.50;;;;;;6138827;22;87899;-89
2023/07/26 00:37:34;;;;;;;2.38;1.30;;;24.00;53.50;;;;;;6142622;22;88502;-91
2023/07/26 00:39:59;;;;;;;1.58;1.20;;;24.00;53.50;;;;;;6113640;22;87216;-89
2023/07/26 00:42:25;;;;;;;2.53;1.25;;;24.00;53.50;;;;;;6114564;22;89558;-90
2023/07/26 00:44:51;;;;;;;1.63;1.10;;;24.00;53.50;;;;;;6141989;22;87966;-91
2023/07/26 00:47:17;;;;;;;1.67;1.00;;;23.90;53.50;;;;;;6139429;22;89576;-90
2023/07/26 00:49:43;;;;;;;1.95;1.30;;;23.90;53.50;;;;;;6142037;22;87682;-88
2023/07/26 00:52:11;;;;;;;2.45;1.33;;;23.90;53.50;;;;;;6141614;22;87505;-88
2023/07/26 00:54:37;;;;;;;1.27;1.13;;;23.90;53.40;;;;;;6114361;22;91767;-88
2023/07/26 00:57:03;;;;;;;2.47;1.25;;;23.90;53.50;;;;;;6143485;22;87419;-89
2023/07/26 00:59:29;;;;;;;1.83;1.00;;;23.90;53.90;;;;;;6115686;22;87774;-88
2023/07/26 01:01:54;;;;;;;2.50;1.48;;;23.90;53.70;;;;;;6144048;22;87764;-89
2023/07/26 01:04:20;;;;;;;1.88;1.40;;;23.90;53.70;;;;;;6114885;22;89871;-88
2023/07/26 01:06:52;;;;;;;1.77;1.15;;;23.90;53.70;;;;;;6143387;22;87625;-89
2023/07/26 01:09:29;;;;;;;1.50;1.13;;;23.80;53.60;;;;;;6116269;22;87424;-89
2023/07/26 01:11:55;;;;;;;2.33;1.40;;;23.90;53.60;;;;;;6118075;22;93198;-89
2023/07/26 01:14:20;;;;;;;1.77;1.20;;;23.90;53.50;;;;;;6144092;22;87771;-89
2023/07/26 01:16:46;;;;;;;2.00;1.23;;;23.90;53.50;;;;;;6116014;22;89923;-89
2023/07/26 01:19:12;;;;;;;1.02;0.90;;;23.90;53.60;;;;;;6140467;22;88808;-92
2023/07/26 01:21:38;;;;;;;1.40;1.15;;;23.90;53.70;;;;;;6114215;22;88981;-88
2023/07/26 01:24:04;;;;;;;1.15;0.95;;;23.90;53.60;;;;;;6115846;22;90860;-88
2023/07/26 01:26:29;;;;;;;1.20;1.10;;;23.80;53.50;;;;;;6114278;22;89643;-89
2023/07/26 01:28:55;;;;;;;1.70;1.55;;;23.80;53.80;;;;;;6141804;22;87072;-89
2023/07/26 01:31:23;;;;;;;1.50;1.23;;;23.80;53.60;;;;;;6117327;22;89354;-90
2023/07/26 01:33:51;;;;;;;2.80;1.30;;;23.80;53.70;;;;;;6142920;22;88482;-88
2023/07/26 01:36:21;;;;;;;2.55;1.55;;;23.80;53.80;;;;;;6116420;22;88649;-89
2023/07/26 01:38:47;;;;;;;1.40;1.08;;;23.80;53.80;;;;;;6141938;22;87546;-89
2023/07/26 01:41:15;;;;;;;1.60;1.30;;;23.80;53.80;;;;;;6114769;22;89087;-91
2023/07/26 01:43:41;;;;;;;1.35;1.15;;;23.80;53.80;;;;;;6143331;22;89181;-87
2023/07/26 01:46:09;;;;;;;1.42;1.27;;;23.80;53.80;;;;;;6142412;22;89399;-87
2023/07/26 01:48:35;;;;;;;2.73;1.37;;;23.80;53.80;;;;;;6142621;22;87277;-88
2023/07/26 01:51:00;;;;;;;2.92;1.10;;;23.70;53.70;;;;;;6142802;22;87350;-90
2023/07/26 01:53:26;;;;;;;1.95;1.20;;;23.80;54.20;;;;;;6139781;22;90612;-89
2023/07/26 01:55:52;;;;;;;1.42;1.10;;;23.80;53.70;;;;;;6143742;22;87651;-92
2023/07/26 01:58:17;;;;;;;1.48;0.93;;;23.80;53.60;;;;;;6115242;22;87944;-90
2023/07/26 02:00:43;;;;;;;2.75;1.27;;;23.80;53.50;;;;;;6115784;22;90074;-89
2023/07/26 02:03:08;;;;;;;1.10;1.00;;;23.80;53.50;;;;;;6115623;22;90506;-88
2023/07/26 02:05:34;;;;;;;1.45;1.10;;;23.80;53.40;;;;;;6142181;22;87748;-88
2023/07/26 02:07:59;;;;;;;2.30;1.25;;;23.80;53.80;;;;;;6142949;22;88058;-90
2023/07/26 02:10:25;;;;;;;1.92;1.23;;;23.80;53.60;;;;;;6144463;22;87515;-90
2023/07/26 02:12:50;;;;;;;1.52;1.25;;;23.80;53.90;;;;;;6144738;22;87767;-89
2023/07/26 02:15:16;;;;;;;1.00;0.90;;;23.80;53.80;;;;;;6143094;22;87816;-91
2023/07/26 02:17:42;;;;;;;1.38;1.10;;;23.70;53.80;;;;;;6115226;22;87675;-88
2023/07/26 02:20:08;;;;;;;1.40;1.02;;;23.70;53.70;;;;;;6138860;22;89138;-88
2023/07/26 02:22:34;;;;;;;1.15;1.05;;;23.70;53.70;;;;;;6141867;22;87943;-88
2023/07/26 02:24:59;;;;;;;2.00;1.30;;;23.70;53.70;;;;;;6142147;22;87403;-90
2023/07/26 02:27:25;;;;;;;1.40;1.20;;;23.70;53.70;;;;;;6143657;22;87627;-89
2023/07/26 02:29:51;;;;;;;1.33;1.10;;;23.70;53.70;;;;;;6142273;22;87388;-89
2023/07/26 02:32:16;;;;;;;2.17;1.17;;;23.70;53.80;;;;;;6113201;22;91587;-90
2023/07/26 02:34:42;;;;;;;1.70;1.58;;;23.70;53.70;;;;;;6113536;22;90925;-89
2023/07/26 02:37:08;;;;;;;1.48;1.15;;;23.70;54.00;;;;;;6115343;22;87709;-89
2023/07/26 02:39:33;;;;;;;1.13;1.00;;;23.70;53.90;;;;;;6113719;22;89149;-88
2023/07/26 02:41:59;;;;;;;1.23;1.13;;;23.70;53.90;;;;;;6140584;22;89406;-90
2023/07/26 02:44:24;;;;;;;1.42;1.23;;;23.70;53.80;;;;;;6141483;22;87967;-91
2023/07/26 02:46:50;;;;;;;1.77;1.52;;;23.70;53.70;;;;;;6141850;22;87723;-88
2023/07/26 02:49:15;;;;;;;1.38;1.17;;;23.70;53.80;;;;;;6114527;22;89015;-89
2023/07/26 02:51:41;;;;;;;1.70;1.20;;;23.70;53.80;;;;;;6114112;22;90651;-91
2023/07/26 02:54:07;;;;;;;2.47;1.42;;;23.70;53.80;;;;;;6141778;22;87458;-89
2023/07/26 02:56:32;;;;;;;2.15;1.17;;;23.70;53.80;;;;;;6113888;22;89408;-89
2023/07/26 02:58:58;;;;;;;2.25;1.00;;;23.70;54.00;;;;;;6114247;22;87926;-89
2023/07/26 03:01:23;;;;;;;1.15;1.00;;;23.70;53.80;;;;;;6142974;22;87605;-90
2023/07/26 03:03:49;;;;;;;1.83;1.05;;;23.70;54.00;;;;;;6139342;22;90074;-91
2023/07/26 03:06:14;;;;;;;1.20;1.10;;;23.70;53.90;;;;;;6143411;22;87487;-89
2023/07/26 03:08:40;;;;;;;1.15;1.05;;;23.70;53.80;;;;;;6142157;22;88115;-89
2023/07/26 03:11:06;;;;;;;0.95;0.90;;;23.70;53.90;;;;;;6142797;22;87936;-90
2023/07/26 03:13:31;;;;;;;1.65;1.13;;;23.70;53.90;;;;;;6116294;22;90238;-91
2023/07/26 03:15:57;;;;;;;1.80;1.20;;;23.60;53.90;;;;;;6141196;22;87239;-88
2023/07/26 03:18:22;;;;;;;1.40;1.20;;;23.70;54.00;;;;;;6115251;22;88124;-88
2023/07/26 03:20:49;;;;;;;1.20;1.10;;;23.70;53.90;;;;;;6141804;22;88869;-88
2023/07/26 03:23:15;;;;;;;1.25;1.15;;;23.70;53.90;;;;;;6115221;22;90695;-88
2023/07/26 03:25:43;;;;;;;0.90;0.90;;;23.70;54.00;;;;;;6143931;22;87320;-90
2023/07/26 03:28:09;;;;;;;1.20;1.00;;;23.70;54.60;;;;;;6139216;22;89321;-89
2023/07/26 03:30:35;;;;;;;1.60;1.48;;;23.70;54.00;;;;;;6142597;22;87337;-88
2023/07/26 03:33:00;;;;;;;1.52;1.00;;;23.70;53.90;;;;;;6142542;22;88264;-89
2023/07/26 03:35:26;;;;;;;1.83;1.40;;;23.70;53.90;;;;;;6138306;22;87437;-88
2023/07/26 03:37:51;;;;;;;1.10;1.00;;;23.70;53.90;;;;;;6114393;22;89319;-91
2023/07/26 03:40:17;;;;;;;1.55;1.02;;;23.60;54.00;;;;;;6140803;22;87775;-90
2023/07/26 03:42:42;;;;;;;1.63;1.10;;;23.70;54.00;;;;;;6141629;22;87561;-91
2023/07/26 03:45:09;;;;;;;1.05;0.95;;;23.70;53.80;;;;;;6142608;22;88555;-88
2023/07/26 03:47:35;;;;;;;1.45;0.80;;;23.70;53.90;;;;;;6113781;22;90299;-88
2023/07/26 03:50:00;;;;;;;1.38;1.25;;;23.60;53.90;;;;;;6114712;22;90055;-89
2023/07/26 03:52:26;;;;;;;1.20;1.05;;;23.70;54.00;;;;;;6141482;22;87641;-89
2023/07/26 03:54:53;;;;;;;1.00;0.90;;;23.70;53.80;;;;;;6115033;22;87463;-87
2023/07/26 03:57:18;;;;;;;1.73;0.82;;;23.70;53.80;;;;;;6115025;22;89658;-88
2023/07/26 03:59:44;;;;;;;1.48;1.17;;;23.60;54.00;;;;;;6141118;22;88746;-88
2023/07/26 04:02:09;;;;;;;1.80;1.08;;;23.60;53.90;;;;;;6115189;22;90034;-90
2023/07/26 04:04:35;;;;;;;1.33;1.00;;;23.60;53.80;;;;;;6139886;22;87539;-88
2023/07/26 04:07:02;;;;;;;3.53;1.40;;;23.60;54.00;;;;;;6141804;22;87282;-90
2023/07/26 04:09:28;;;;;;;1.00;0.90;;;23.60;53.80;;;;;;6138905;22;91259;-90
2023/07/26 04:11:57;;;;;;;1.27;1.17;;;23.60;53.70;;;;;;6115089;22;90781;-89
2023/07/26 04:14:23;;;;;;;1.17;0.98;;;23.60;53.70;;;;;;6114077;22;88045;-88
2023/07/26 04:16:49;;;;;;;1.73;1.10;;;23.60;53.70;;;;;;6141729;22;87748;-92
2023/07/26 04:19:15;;;;;;;1.30;1.15;;;23.60;53.80;;;;;;6141254;22;94611;-90
2023/07/26 04:21:40;;;;;;;0.90;0.90;;;23.70;54.00;;;;;;6142677;22;87754;-87
2023/07/26 04:24:06;;;;;;;2.28;1.42;;;23.60;53.90;;;;;;6139453;22;87466;-89
2023/07/26 04:26:32;;;;;;;1.38;1.15;;;23.70;53.80;;;;;;6114933;22;89327;-90
2023/07/26 04:28:58;;;;;;;0.90;0.90;;;23.60;53.70;;;;;;6114764;22;90589;-89
2023/07/26 04:31:23;;;;;;;0.93;0.85;;;23.60;53.70;;;;;;6141719;22;87110;-90
2023/07/26 04:33:49;;;;;;;2.15;1.10;;;23.60;54.00;;;;;;6140462;22;88442;-90
2023/07/26 04:36:15;;;;;;;1.20;1.10;;;23.60;54.00;;;;;;6115642;22;89470;-89
2023/07/26 04:38:40;;;;;;;1.45;1.02;;;23.60;53.90;;;;;;6114654;22;89683;-89
2023/07/26 04:41:06;;;;;;;0.95;0.93;;;23.60;54.00;;;;;;6138959;22;89479;-90
2023/07/26 04:43:31;;;;;;;1.30;1.20;;;23.60;54.70;;;;;;6139806;22;87574;-88
2023/07/26 04:45:57;;;;;;;1.50;1.02;;;23.60;53.90;;;;;;6141923;22;87810;-88
2023/07/26 04:48:23;;;;;;;0.85;0.80;;;23.50;53.90;;;;;;6141253;22;87518;-89
2023/07/26 04:50:49;;;;;;;1.27;1.10;;;23.50;54.10;;;;;;6141047;22;88033;-88
2023/07/26 04:53:16;;;;;;;1.48;1.10;;;23.50;54.10;;;;;;6139411;22;87086;-90
2023/07/26 04:55:46;;;;;;;1.30;0.90;;;23.50;54.20;;;;;;6114262;22;89531;-90
2023/07/26 04:58:12;;;;;;;1.30;1.10;;;23.50;54.30;;;;;;6113697;22;90947;-89
2023/07/26 05:00:39;;;;;;;1.92;1.13;;;23.50;54.20;;;;;;6141503;22;88340;-89
2023/07/26 05:03:05;;;;;;;1.05;1.00;;;23.50;54.20;;;;;;6141872;22;87901;-89
2023/07/26 05:05:32;;;;;;;1.25;1.15;;;23.50;54.10;;;;;;6114126;22;89105;-91
2023/07/26 05:07:57;;;;;;;1.20;1.08;;;23.50;54.20;;;;;;6141683;22;87856;-86
2023/07/26 05:10:25;;;;;;;1.38;1.20;;;23.50;54.20;;;;;;6114105;22;90412;-90
2023/07/26 05:12:51;;;;;;;1.98;1.27;;;23.50;54.20;;;;;;6115254;22;87188;-90
2023/07/26 05:15:17;;;;;;;1.40;1.05;;;23.50;54.20;;;;;;6143144;22;87565;-90
2023/07/26 05:17:44;;;;;;;1.20;1.10;;;23.50;54.30;;;;;;6140864;22;87662;-90
2023/07/26 05:20:10;;;;;;;1.90;1.17;;;23.50;54.30;;;;;;6113319;22;90033;-89
2023/07/26 05:22:36;;;;;;;1.63;1.20;;;23.50;54.30;;;;;;6140506;22;88878;-89
2023/07/26 05:25:02;;;;;;;1.42;1.05;;;23.50;54.40;;;;;;6114174;22;88215;-89
2023/07/26 05:27:28;;;;;;;1.00;0.90;;;23.50;54.20;;;;;;6141861;22;87873;-88
2023/07/26 05:29:53;;;;;;;1.67;0.93;;;23.50;54.20;;;;;;6140205;22;89091;-88
2023/07/26 05:32:19;;;;;;;1.25;1.10;;;23.40;54.40;;;;;;6141721;22;87330;-88
2023/07/26 05:34:45;;;;;;;1.05;1.02;;;23.50;54.30;;;;;;6140573;22;87944;-89
2023/07/26 05:37:10;;;;;;;1.63;1.20;;;23.50;55.10;;;;;;6113931;22;90522;-89
2023/07/26 05:39:36;;;;;;;1.20;0.90;;;23.50;55.00;;;;;;6140609;22;89992;-88
2023/07/26 05:42:01;;;;;;;1.85;1.30;;;23.50;54.40;;;;;;6116670;22;87769;-90
2023/07/26 05:44:27;;;;;;;1.33;1.13;;;23.50;54.10;;;;;;6141743;22;87894;-89
2023/07/26 05:46:53;;;;;;;1.45;1.35;;;23.50;54.30;;;;;;6142599;22;89224;-91
2023/07/26 05:49:18;;;;;;;1.05;0.93;;;23.50;54.10;;;;;;6139943;22;90707;-90
2023/07/26 05:51:44;;;;;;;1.25;1.15;;;23.50;53.90;;;;;;6139680;22;88045;-91
2023/07/26 05:54:10;;;;;;;0.80;0.80;;;23.60;54.00;;;;;;6142732;22;87089;-89
2023/07/26 05:56:35;;;;;;;1.10;1.00;;;23.60;53.90;;;;;;6141038;22;90898;-91
2023/07/26 05:59:01;;;;;;;0.75;0.70;;;23.60;54.10;;;;;;6140291;22;89941;-88
2023/07/26 06:01:27;;;;;;;1.30;1.13;;;23.60;53.80;;;;;;6142489;22;88198;-89
2023/07/26 06:03:53;;;;;;;1.52;1.17;;;23.60;54.00;;;;;;6113465;22;89441;-89
2023/07/26 06:06:19;;;;;;;1.08;1.00;;;23.60;53.90;;;;;;6115962;22;90364;-88
2023/07/26 06:08:45;;;;;;;1.88;1.08;;;23.60;53.90;;;;;;6141388;22;88559;-88
2023/07/26 06:11:10;;;;;;;2.03;1.10;;;23.60;54.00;;;;;;6140033;22;88688;-88
2023/07/26 06:13:36;;;;;;;1.10;0.98;;;23.60;54.00;;;;;;6142993;22;86957;-89
2023/07/26 06:16:01;;;;;;;1.63;1.27;;;23.60;54.00;;;;;;6141388;22;88527;-87
2023/07/26 06:18:27;;;;;;;3.45;1.30;;;23.60;53.80;;;;;;6142651;22;87547;-87
2023/07/26 06:20:53;;;;;;;1.92;1.50;;;23.60;53.80;;;;;;6142510;22;88472;-88
2023/07/26 06:23:18;;;;;;;5.80;1.52;;;23.60;53.70;;;;;;6142774;22;87651;-89
2023/07/26 06:25:44;;;;;;;5.10;2.28;;;23.60;53.80;;;;;;6117599;22;90527;-92
2023/07/26 06:28:10;;;;;;;1.88;1.30;;;23.60;53.70;;;;;;6117772;22;90765;-87
2023/07/26 06:30:35;;;;;;;3.30;1.60;;;23.60;54.10;;;;;;6147348;22;88017;-92
2023/07/26 06:33:01;;;;;;;2.42;1.65;;;23.60;54.00;;;;;;6142349;22;87507;-91
2023/07/26 06:35:27;;;;;;;3.45;1.65;;;23.60;54.00;;;;;;6145577;22;89277;-94
2023/07/26 06:37:52;;;;;;;6.68;1.58;;;23.60;54.20;;;;;;6142652;22;88394;-87
2023/07/26 06:40:18;;;;;;;22.60;2.10;;;23.60;54.10;;;;;;6144871;22;87340;-90
2023/07/26 06:42:44;;;;;;;4.25;1.92;;;23.60;54.30;;;;;;6142302;22;87413;-84
2023/07/26 06:45:10;;;;;;;4.40;1.98;;;23.60;54.00;;;;;;6142382;22;88124;-84
2023/07/26 06:47:35;;;;;;;3.40;1.65;;;23.70;53.70;;;;;;6143300;22;88234;-84
2023/07/26 06:50:02;;;;;;;4.35;1.90;;;23.70;53.60;;;;;;6140889;22;88027;-90
2023/07/26 06:52:31;;;;;;;4.60;1.88;;;23.70;53.70;;;;;;6141468;22;87004;-85
2023/07/26 06:54:57;;;;;;;7.47;1.73;;;23.70;53.70;;;;;;6113750;22;91504;-86
2023/07/26 06:57:22;;;;;;;7.38;1.90;;;23.70;53.60;;;;;;6142472;22;87585;-85
2023/07/26 06:59:48;;;;;;;4.03;2.13;;;23.70;53.60;;;;;;6138544;22;88555;-86
2023/07/26 07:02:14;;;;;;;7.25;2.10;;;23.70;53.80;;;;;;6137299;22;87272;-87
2023/07/26 07:04:39;;;;;;;7.28;2.00;;;23.70;53.50;;;;;;6138352;22;88576;-88
2023/07/26 07:07:05;;;;;;;4.15;1.60;;;23.70;53.70;;;;;;6139652;22;88012;-86
2023/07/26 07:09:31;;;;;;;5.70;2.05;;;23.70;53.30;;;;;;6113704;22;87492;-87
2023/07/26 07:11:56;;;;;;;6.15;2.28;;;23.70;53.30;;;;;;6141608;22;87673;-87
2023/07/26 07:14:22;;;;;;;7.50;2.20;;;23.70;53.20;;;;;;6133955;22;88591;-89
2023/07/26 07:16:47;;;;;;;4.03;2.25;;;23.70;53.40;;;;;;6139753;22;87574;-86
2023/07/26 07:19:13;;;;;;;6.15;2.40;;;23.70;53.40;;;;;;6138376;22;87560;-88
2023/07/26 07:21:39;;;;;;;6.53;1.88;;;23.70;53.40;;;;;;6112904;22;89690;-86
2023/07/26 07:24:05;;;;;;;5.65;2.30;;;23.70;53.40;;;;;;6141013;22;89010;-89
2023/07/26 07:26:31;;;;;;;5.07;2.00;;;23.70;53.40;;;;;;6142160;22;88715;-88
2023/07/26 07:28:56;;;;;;;12.52;2.85;;;23.70;53.30;;;;;;6116125;22;87330;-89
2023/07/26 07:31:22;;;;;;;7.00;2.38;;;23.90;54.70;;;;;;6148896;22;86873;-88
2023/07/26 07:33:48;;;;;;;8.93;2.60;;;24.00;53.20;;;;;;6144631;22;88274;-87
2023/07/26 07:36:17;;;;;;;6.80;2.40;;;24.00;53.30;;;;;;6116387;22;89730;-87
2023/07/26 07:38:46;;;;;;;7.57;2.60;;;24.10;53.30;;;;;;6114751;22;87836;-87
2023/07/26 07:41:13;;;;;;;9.90;2.42;;;24.00;53.20;;;;;;6142300;22;86658;-89
2023/07/26 07:43:38;;;;;;;5.60;2.13;;;24.00;53.40;;;;;;6142130;22;87657;-87
2023/07/26 07:46:04;;;;;;;5.38;2.60;;;24.00;53.50;;;;;;6141543;22;87322;-87
2023/07/26 07:48:30;;;;;;;6.65;2.63;;;23.90;53.70;;;;;;6113519;22;88272;-87
2023/07/26 07:50:56;;;;;;;5.15;2.33;;;23.80;53.60;;;;;;6141261;22;89394;-87
2023/07/26 07:53:25;;;;;;;8.73;2.55;;;23.70;54.10;;;;;;6144289;22;88804;-89
2023/07/26 07:55:51;;;;;;;7.00;1.90;;;23.70;54.00;;;;;;6138629;22;87711;-86
2023/07/26 07:58:17;;;;;;;8.23;2.28;;;23.60;54.30;;;;;;6141470;22;87164;-88
2023/07/26 08:00:43;;;;;;;9.52;2.75;;;23.60;54.10;;;;;;6143283;22;87614;-84
2023/07/26 08:03:09;;;;;;;10.18;3.25;;;23.60;54.00;;;;;;6115373;22;88790;-87
2023/07/26 08:05:35;;;;;;;7.80;2.75;;;23.50;54.00;;;;;;6142428;22;87851;-85
2023/07/26 08:08:01;;;;;;;9.82;2.60;;;23.50;54.40;;;;;;6142515;22;87199;-83
2023/07/26 08:10:26;;;;;;;7.00;2.67;;;23.50;55.10;;;;;;6144252;22;87928;-86
2023/07/26 08:12:53;;;;;;;19.17;3.70;;;23.40;56.50;;;;;;6113595;22;88579;-86
2023/07/26 08:15:18;;;;;;;8.57;2.90;;;23.40;55.90;;;;;;6143418;22;89032;-89
2023/07/26 08:17:44;;;;;;;5.20;2.75;;;23.30;56.20;;;;;;6143767;22;87557;-90
2023/07/26 08:20:11;;;;;;;6.35;2.75;;;23.30;56.20;;;;;;6147588;22;87121;-90
2023/07/26 08:22:37;;;;;;;6.30;2.55;;;23.30;56.50;;;;;;6147796;22;87164;-91
2023/07/26 08:25:03;;;;;;;9.07;3.35;;;23.30;56.00;;;;;;6149585;22;87310;-90
2023/07/26 08:27:30;;;;;;;7.03;2.97;;;23.40;56.30;;;;;;6155089;22;87484;-93
2023/07/26 08:29:55;;;;;;;8.75;3.28;;;23.30;56.30;;;;;;6127491;22;93297;-89
2023/07/26 08:32:21;;;;;;;9.88;2.45;;;23.30;56.20;;;;;;6157409;22;87706;-89
2023/07/26 08:34:46;;;;;;;5.43;2.85;;;23.40;56.30;;;;;;6156188;22;87515;-89
2023/07/26 08:37:12;;;;;;;5.78;2.72;;;23.40;55.90;;;;;;6150508;22;87833;-89
2023/07/26 08:39:39;;;;;;;10.48;2.42;;;23.40;56.30;;;;;;6158631;22;87503;-84
2023/07/26 08:42:04;;;;;;;4.95;2.50;;;23.40;56.50;;;;;;6166107;22;86955;-91
2023/07/26 08:44:32;;;;;;;7.32;2.78;;;23.40;56.40;;;;;;6163317;22;88059;-85
2023/07/26 08:46:59;;;;;;;7.47;2.70;;;23.40;56.20;;;;;;6168040;22;87359;-87
2023/07/26 08:49:26;;;;;;;6.78;2.80;;;23.40;55.80;;;;;;6169847;22;86736;-87
2023/07/26 08:51:52;;;;;;;5.97;2.50;;;23.40;55.70;;;;;;6153493;22;87237;-84
2023/07/26 08:54:18;;;;;;;8.73;2.80;;;23.40;55.90;;;;;;6135381;22;87615;-93
2023/07/26 08:56:45;;;;;;;9.90;3.05;;;23.40;55.50;;;;;;6155827;22;87115;-91
2023/07/26 08:59:10;;;;;;;6.57;2.50;;;23.40;55.10;;;;;;6151474;22;87719;-92
2023/07/26 09:01:36;;;;;;;5.43;2.58;;;23.40;55.60;;;;;;6152489;22;89456;-91
2023/07/26 09:04:02;;;;;;;3.85;2.40;;;23.40;55.40;;;;;;6150408;22;88098;-92
2023/07/26 09:06:28;;;;;;;6.53;2.65;;;23.40;55.30;;;;;;6161594;22;86928;-91
2023/07/26 09:08:54;;;;;;;5.57;2.28;;;23.40;54.90;;;;;;6154568;22;87352;-89
2023/07/26 09:11:25;;;;;;;7.85;2.38;;;23.40;55.50;;;;;;6150370;22;87472;-90
2023/07/26 09:13:58;;;;;;;3.88;2.58;;;23.40;54.90;;;;;;6151522;22;87782;-90
2023/07/26 09:16:28;;;;;;;6.78;2.25;;;23.40;54.50;;;;;;6150121;22;87462;-89
2023/07/26 09:19:04;;;;;;;8.15;2.30;;;23.40;54.20;;;;;;6150605;22;87366;-90
2023/07/26 09:21:35;;;;;;;5.30;2.33;;;23.40;54.40;;;;;;6148058;22;87533;-89
2023/07/26 09:24:05;;;;;;;6.63;2.47;;;23.40;54.20;;;;;;6141094;22;91970;-88
2023/07/26 09:26:40;;;;;;;3.78;2.25;;;23.40;54.60;;;;;;6141363;22;88573;-86
2023/07/26 09:29:11;;;;;;;4.90;1.70;;;23.40;54.60;;;;;;6116184;22;88343;-92
2023/07/26 09:31:38;;;;;;;5.43;1.95;;;23.40;54.60;;;;;;6144593;22;88325;-91
2023/07/26 09:34:12;;;;;;;3.72;2.17;;;23.40;54.60;;;;;;6116967;22;89430;-90
2023/07/26 09:36:42;;;;;;;3.95;2.20;;;23.40;54.90;;;;;;6145685;22;87687;-88
2023/07/26 09:39:09;;;;;;;3.20;2.10;;;23.50;54.10;;;;;;6146352;22;87027;-89
2023/07/26 09:41:35;;;;;;;4.97;1.90;;;23.50;54.60;;;;;;6116592;22;90525;-86
2023/07/26 09:44:00;;;;;;;5.03;2.42;;;23.50;54.90;;;;;;6144502;22;89432;-90
2023/07/26 09:46:26;;;;;;;8.57;2.58;;;23.40;54.90;;;;;;6117827;22;87406;-85
2023/07/26 09:48:59;;;;;;;9.40;2.63;;;23.40;54.00;;;;;;6144048;22;87568;-87
2023/07/26 09:51:32;;;;;;;4.88;1.90;;;23.40;54.90;;;;;;6144027;22;88588;-89
2023/07/26 09:53:58;;;;;;;2.78;2.17;;;23.40;54.90;;;;;;6143521;22;91713;-91
2023/07/26 09:56:26;;;;;;;4.97;1.90;;;23.40;54.80;;;;;;6142805;22;87820;-89
2023/07/26 09:58:51;;;;;;;7.75;2.35;;;23.40;55.00;;;;;;6143675;22;87117;-87
2023/07/26 10:01:19;;;;;;;3.33;1.90;;;23.40;54.80;;;;;;6118763;22;90817;-83
2023/07/26 10:03:54;;;;;;;7.20;2.10;;;23.30;54.70;;;;;;6142410;22;93571;-85
2023/07/26 10:06:22;;;;;;;5.10;2.05;;;23.40;53.60;;;;;;6145310;22;87133;-89
2023/07/26 10:08:48;;;;;;;6.30;1.73;;;23.40;52.90;;;;;;6145898;22;86557;-90
2023/07/26 10:11:18;;;;;;;5.75;1.83;;;23.40;53.10;;;;;;6145117;22;87884;-85
2023/07/26 10:13:45;;;;;;;4.05;2.40;;;23.40;53.10;;;;;;6117750;22;88833;-88
2023/07/26 10:16:11;;;;;;;8.20;2.60;;;23.40;53.60;;;;;;6142579;22;89343;-85
2023/07/26 10:18:36;;;;;;;5.18;2.35;;;23.40;53.50;;;;;;6140479;22;88229;-86
2023/07/26 10:21:04;;;;;;;4.22;2.20;;;23.40;53.00;;;;;;6142354;22;87964;-88
2023/07/26 10:23:31;;;;;;;5.10;2.20;;;23.40;53.10;;;;;;6139992;22;87703;-86
2023/07/26 10:26:00;;;;;;;6.65;1.73;;;23.40;53.10;;;;;;6141327;22;87746;-85
2023/07/26 10:28:26;;;;;;;4.22;1.83;;;23.40;52.90;;;;;;6140864;22;87275;-86
2023/07/26 10:30:53;;;;;;;6.45;2.20;;;23.40;52.80;;;;;;6143464;22;88535;-87
2023/07/26 10:33:18;;;;;;;5.05;1.92;;;23.40;53.00;;;;;;6142969;22;87688;-84
2023/07/26 10:35:46;;;;;;;2.30;1.75;;;23.40;53.10;;;;;;6142302;22;87719;-85
2023/07/26 10:38:15;;;;;;;4.63;2.08;;;23.40;52.70;;;;;;6143363;22;87506;-86
2023/07/26 10:40:41;;;;;;;2.78;1.90;;;23.40;52.30;;;;;;6141015;22;90503;-86
2023/07/26 10:43:22;;;;;;;4.53;1.80;;;23.40;52.20;;;;;;6145084;22;88501;-90
2023/07/26 10:45:54;;;;;;;3.50;2.15;;;23.50;52.00;;;;;;6142386;22;87121;-88
2023/07/26 10:48:22;;;;;;;3.63;2.50;;;23.40;51.40;;;;;;6144896;22;87504;-87
2023/07/26 10:50:48;;;;;;;4.22;1.92;;;23.50;51.70;;;;;;6115091;22;90557;-86
2023/07/26 10:53:26;;;;;;;7.28;2.15;;;23.50;51.50;;;;;;6115905;22;87884;-85
2023/07/26 10:55:52;;;;;;;9.38;3.13;;;23.40;52.30;;;;;;6143346;22;87354;-85
2023/07/26 10:58:17;;;;;;;8.00;2.97;;;23.40;51.10;;;;;;6143053;22;86742;-90
2023/07/26 11:00:45;;;;;;;8.70;3.30;;;23.50;50.90;;;;;;6116082;22;89369;-86
2023/07/26 11:03:12;;;;;;;11.88;3.80;;;23.50;51.00;;;;;;6143779;22;87728;-89
2023/07/26 11:05:53;;;;;;;9.90;3.05;;;23.50;51.00;;;;;;6143179;22;88206;-85
2023/07/26 11:08:18;;;;;;;9.27;3.05;;;23.50;50.50;;;;;;6142785;22;87416;-87
2023/07/26 11:10:51;;;;;;;6.72;2.97;;;23.50;50.00;;;;;;6142726;22;87446;-87
2023/07/26 11:13:28;;;;;;;11.85;3.63;;;23.50;50.20;;;;;;6144582;22;87610;-89
2023/07/26 11:15:54;;;;;;;10.02;3.67;;;23.50;49.90;;;;;;6145337;22;86918;-86
2023/07/26 11:18:20;;;;;;;10.50;3.72;;;23.50;50.00;;;;;;6146093;22;87122;-87
2023/07/26 11:20:50;;;;;;;10.32;3.50;;;23.60;49.80;;;;;;6142689;22;93823;-87
2023/07/26 11:23:16;;;;;;;;;;;23.50;49.80;;;;;;6142591;22;92990;-88
2023/07/26 11:25:42;;;;;;;7.43;3.13;;;23.60;49.80;;;;;;6144477;22;92276;-86
2023/07/26 11:28:08;;;;;;;13.90;3.25;;;23.60;49.70;;;;;;6141593;22;92499;-86
2023/07/26 11:30:37;;;;;;;9.93;3.17;;;23.60;49.50;;;;;;6139571;22;93367;-87
2023/07/26 11:33:03;;;;;;;;;;;23.60;49.60;;;;;;6142035;22;94119;-87
2023/07/26 11:35:41;;;;;;;41.70;9.73;;;23.50;49.00;;;;;;6112677;22;92647;-88
2023/07/26 11:38:07;;;;;;;51.83;10.20;;;23.60;49.40;;;;;;6139397;22;92394;-88
2023/07/26 11:40:41;;;;;;;58.45;12.07;;;23.60;49.00;;;;;;6138290;22;92957;-89
2023/07/26 11:43:07;;;;;;;48.90;12.32;;;23.60;48.50;;;;;;6134649;22;94087;-86
2023/07/26 11:45:33;;;;;;;46.03;10.75;;;23.50;48.80;;;;;;6137493;22;92401;-89
2023/07/26 11:47:59;;;;;;;48.17;10.43;;;23.50;48.50;;;;;;6137215;22;92093;-87
2023/07/26 11:50:26;;;;;;;48.13;11.48;;;23.50;48.50;;;;;;6132590;22;93317;-88
2023/07/26 11:53:05;;;;;;;43.03;10.18;;;23.50;48.50;;;;;;6136314;22;92631;-86
2023/07/26 11:55:32;;;;;;;38.72;8.60;;;23.40;48.40;;;;;;6136178;22;93359;-86
2023/07/26 11:58:07;;;;;;;34.25;8.85;;;23.40;47.80;;;;;;6137054;22;92325;-90
2023/07/26 12:00:34;;;;;;;28.35;8.27;;;23.40;48.10;;;;;;6138029;22;92941;-87
2023/07/26 12:03:04;;;;;;;25.15;7.07;;;23.40;47.90;;;;;;6112888;22;94029;-89
2023/07/26 12:05:30;;;;;;;23.05;6.78;;;23.40;47.60;;;;;;6138708;22;92524;-88
2023/07/26 12:08:00;;;;;;;24.52;7.22;;;23.50;47.30;;;;;;6107758;22;94454;-86
2023/07/26 12:10:37;;;;;;;19.40;6.57;;;23.50;47.70;;;;;;6134663;22;93488;-87
2023/07/26 12:13:07;;;;;;;8.10;3.78;;;23.50;47.90;;;;;;6134906;22;93230;-85
2023/07/26 12:15:52;;;;;;;11.35;4.20;;;23.50;47.40;;;;;;6137161;22;92321;-87
2023/07/26 12:18:20;;;;;;;11.95;4.60;;;23.40;47.30;;;;;;6139310;22;92491;-88
2023/07/26 12:21:07;;;;;;;17.58;4.57;;;23.40;47.30;;;;;;6136766;22;93873;-88
2023/07/26 12:23:51;;;;;;;9.70;3.58;;;23.40;47.60;;;;;;6132117;22;96558;-87
2023/07/26 12:26:22;;;;;;;11.05;4.15;;;23.40;47.60;;;;;;6132972;22;92446;-89
2023/07/26 12:28:49;;;;;;;11.43;4.22;;;23.50;47.60;;;;;;6108958;22;92287;-87
2023/07/26 12:31:20;;;;;;;8.50;3.28;;;23.50;47.80;;;;;;6135672;22;93683;-85
2023/07/26 12:33:55;;;;;;;8.65;3.40;;;23.50;47.50;;;;;;6134957;22;94172;-87
2023/07/26 12:36:21;;;;;;;6.90;3.03;;;23.40;47.60;;;;;;6136645;22;92832;-85
2023/07/26 12:38:48;;;;;;;6.85;3.58;;;23.50;47.60;;;;;;6109352;22;91663;-86
2023/07/26 12:41:14;;;;;;;10.38;4.03;;;23.50;47.40;;;;;;6135159;22;93025;-86
2023/07/26 12:43:39;;;;;;;8.18;3.47;;;23.50;47.60;;;;;;6133309;22;92848;-86